Time;durP1;ratioP1;P1;durP2;ratioP2;P2;SDS_P1;SDS_P2;PMS_P1;PMS_P2;Temp;Humidity;BMP_temperature;BMP_pressure;BME280_temperature;BME280_humidity;BME280_pressure;Samples;Min_cycle;Max_cycle;Signal;HPM_P1;HPM_P2
2022/05/16 00:00:24;;;;;;;8.10;2.83;;;16.00;97.60;;;16.88;92.47;98017.47;5021440;28;21001;-76
2022/05/16 00:02:54;;;;;;;6.70;2.33;;;16.00;97.80;;;16.85;93.10;98015.31;5019953;28;20823;-77
2022/05/16 00:05:24;;;;;;;5.27;2.47;;;15.90;97.90;;;16.83;93.25;98013.94;5019938;28;20557;-76
2022/05/16 00:07:55;;;;;;;3.83;2.70;;;15.90;97.70;;;16.78;93.65;98008.50;5018967;28;20466;-77
2022/05/16 00:10:25;;;;;;;6.13;2.93;;;16.00;97.60;;;16.76;93.91;98013.22;5018536;28;20494;-76
2022/05/16 00:12:55;;;;;;;3.73;2.73;;;15.90;97.80;;;16.70;94.53;98012.28;5018145;28;21030;-77
2022/05/16 00:15:26;;;;;;;4.83;2.40;;;15.80;98.00;;;16.75;95.23;98020.34;5018657;28;20575;-77
2022/05/16 00:17:55;;;;;;;12.33;2.63;;;15.70;98.30;;;16.76;94.34;98013.22;5018067;28;20972;-77
2022/05/16 00:20:26;;;;;;;6.90;3.07;;;15.80;98.20;;;16.68;95.15;98008.25;5018051;28;20515;-76
2022/05/16 00:22:56;;;;;;;4.13;2.63;;;15.70;98.30;;;16.70;95.48;98012.28;5019109;28;20477;-77
2022/05/16 00:25:25;;;;;;;6.30;2.37;;;15.70;98.50;;;16.71;94.98;98005.16;5020252;28;20559;-76
2022/05/16 00:27:56;;;;;;;3.03;2.13;;;15.70;98.10;;;16.64;94.94;98013.19;5019422;28;20517;-76
2022/05/16 00:30:25;;;;;;;8.60;2.70;;;15.70;98.20;;;16.60;95.61;98006.75;5020022;28;20517;-76
2022/05/16 00:32:55;;;;;;;5.50;2.57;;;15.70;98.40;;;16.59;95.75;98005.94;5019394;28;20490;-76
2022/05/16 00:35:25;;;;;;;4.70;2.80;;;15.70;98.10;;;16.51;96.73;98003.59;5020882;28;20450;-77
2022/05/16 00:37:55;;;;;;;5.00;2.40;;;15.70;98.30;;;16.49;96.71;98005.66;5020890;28;20510;-77
2022/05/16 00:40:25;;;;;;;4.67;2.53;;;15.60;98.40;;;16.45;96.91;98004.50;5019760;28;20549;-76
2022/05/16 00:43:03;;;;;;;8.30;2.83;;;15.50;98.50;;;16.45;97.05;98009.00;5016677;28;20468;-77
2022/05/16 00:45:33;;;;;;;5.90;3.80;;;15.50;98.60;;;16.45;97.14;98009.00;5015870;28;20477;-77
2022/05/16 00:48:05;;;;;;;4.70;3.00;;;15.50;98.50;;;16.43;97.27;98001.28;5017476;28;20468;-76
2022/05/16 00:50:39;;;;;;;4.50;2.63;;;15.50;98.50;;;16.42;97.35;98001.50;5018161;28;20486;-77
2022/05/16 00:53:11;;;;;;;6.80;2.30;;;15.50;98.60;;;16.40;97.29;98006.22;5016953;28;20461;-76
2022/05/16 00:55:42;;;;;;;4.13;2.00;;;15.50;98.70;;;16.33;98.03;98006.31;5017691;28;21491;-76
2022/05/16 00:58:16;;;;;;;3.60;2.73;;;15.40;98.70;;;16.30;98.60;98006.75;5016750;28;20462;-76
2022/05/16 01:00:48;;;;;;;4.97;2.20;;;15.30;98.90;;;16.33;98.45;98016.84;5017365;28;20470;-77
2022/05/16 01:06:08;;;;;;;9.37;3.30;;;15.40;98.80;;;16.37;98.89;98010.09;5017714;28;20559;-76
2022/05/16 01:08:43;;;;;;;5.57;2.90;;;15.40;99.10;;;16.37;98.60;98010.09;5019583;28;20458;-76
2022/05/16 01:11:15;;;;;;;4.10;2.63;;;15.40;98.90;;;16.30;98.82;98009.38;5016901;28;21052;-77
2022/05/16 01:13:46;;;;;;;4.53;2.40;;;15.40;98.70;;;16.26;98.91;98008.22;5015781;28;20459;-76
2022/05/16 01:16:15;;;;;;;4.97;2.87;;;15.30;98.80;;;16.30;99.01;98006.75;5016866;28;20565;-76
2022/05/16 01:18:46;;;;;;;4.60;2.30;;;15.30;99.20;;;16.30;98.97;98005.94;5016126;28;20469;-77
2022/05/16 01:21:32;;;;;;;3.80;2.63;;;15.30;99.00;;;16.25;99.12;98014.53;5018997;28;20482;-77
2022/05/16 01:24:09;;;;;;;3.50;2.30;;;15.20;99.10;;;16.20;99.26;98017.03;5015861;28;20551;-77
2022/05/16 01:26:40;;;;;;;3.00;2.10;;;15.30;99.20;;;16.17;100.00;98014.03;5017617;28;20733;-77
2022/05/16 01:29:10;;;;;;;3.40;2.33;;;15.20;99.30;;;16.18;99.93;98005.06;5018424;28;20442;-76
2022/05/16 01:31:39;;;;;;;3.27;2.17;;;15.20;99.10;;;16.18;100.00;98003.25;5019125;28;20504;-77
2022/05/16 01:34:10;;;;;;;6.40;3.00;;;15.10;99.30;;;16.14;100.00;98011.84;5019386;28;20457;-76
2022/05/16 01:36:40;;;;;;;4.90;2.70;;;15.20;99.20;;;16.15;100.00;98016.91;5019326;28;20462;-76
2022/05/16 01:39:11;;;;;;;8.53;2.57;;;15.10;99.30;;;16.15;100.00;98024.81;5018244;28;20461;-77
2022/05/16 01:41:40;;;;;;;6.27;2.50;;;15.10;99.30;;;16.13;100.00;98026.88;5020822;28;20469;-76
2022/05/16 01:44:10;;;;;;;3.70;2.77;;;15.20;99.10;;;16.09;100.00;98031.78;5020682;28;20475;-76
2022/05/16 01:46:41;;;;;;;5.20;2.83;;;15.10;99.20;;;16.08;100.00;98038.09;5023714;28;20494;-77
2022/05/16 01:49:13;;;;;;;11.40;3.40;;;15.10;99.40;;;16.07;100.00;98028.56;5019981;28;20469;-76
2022/05/16 01:51:44;;;;;;;6.40;2.70;;;15.10;99.10;;;16.05;100.00;98037.72;5020637;28;20566;-77
2022/05/16 01:54:15;;;;;;;5.30;2.57;;;15.10;99.40;;;16.03;100.00;98035.31;5020946;28;20535;-76
2022/05/16 01:56:46;;;;;;;5.87;2.97;;;15.00;99.50;;;15.97;100.00;98030.91;5019004;28;20470;-76
2022/05/16 01:59:17;;;;;;;6.00;2.53;;;15.00;99.50;;;15.99;100.00;98028.88;5020476;28;20485;-76
2022/05/16 02:01:47;;;;;;;4.03;2.77;;;15.00;99.60;;;15.97;100.00;98030.09;5021040;28;20470;-77
2022/05/16 02:04:15;;;;;;;5.83;2.73;;;14.90;99.50;;;15.96;100.00;98031.16;5022593;28;20625;-77
2022/05/16 02:06:46;;;;;;;5.03;2.87;;;15.10;99.30;;;15.95;100.00;98040.09;5019018;28;20561;-76
2022/05/16 02:09:18;;;;;;;6.37;2.70;;;15.10;99.60;;;15.96;100.00;98041.69;5021084;28;20473;-76
2022/05/16 02:11:48;;;;;;;12.10;2.77;;;15.10;99.50;;;15.95;100.00;98040.09;5021823;28;20972;-77
2022/05/16 02:14:19;;;;;;;13.17;3.30;;;15.10;99.40;;;15.90;100.00;98045.19;5020999;28;20553;-76
2022/05/16 02:16:49;;;;;;;9.57;3.43;;;15.00;99.90;;;15.84;100.00;98007.34;5019372;28;20486;-76
2022/05/16 02:19:19;;;;;;;6.80;2.80;;;15.10;99.90;;;15.82;100.00;98003.31;5021485;28;20457;-76
2022/05/16 02:24:40;;;;;;;4.63;3.40;;;14.90;99.90;;;15.74;100.00;97980.69;5021064;28;20544;-76
2022/05/16 02:27:13;;;;;;;7.70;3.53;;;14.90;99.90;;;15.73;100.00;97984.34;5019982;28;20493;-76
2022/05/16 02:29:44;;;;;;;7.10;3.17;;;14.80;99.90;;;15.65;100.00;97971.47;5020057;28;20872;-76
2022/05/16 02:32:15;;;;;;;8.10;3.77;;;14.90;99.90;;;15.62;100.00;97976.38;5018472;28;20461;-76
2022/05/16 02:34:45;;;;;;;10.83;3.43;;;15.00;99.90;;;15.61;100.00;97970.31;5021286;28;20527;-76
2022/05/16 02:37:15;;;;;;;6.00;3.57;;;14.80;99.90;;;15.59;100.00;97982.88;5018750;28;20469;-76
2022/05/16 02:39:45;;;;;;;8.33;2.90;;;14.80;99.90;;;15.59;100.00;97967.06;5018532;28;20463;-76
2022/05/16 02:42:16;;;;;;;14.63;3.50;;;14.80;99.90;;;15.59;100.00;97962.59;5020247;28;20965;-77
2022/05/16 02:44:47;;;;;;;5.27;3.30;;;14.90;99.90;;;15.59;100.00;97961.81;5020665;28;20459;-76
2022/05/16 02:47:19;;;;;;;7.50;3.20;;;14.80;99.90;;;15.59;100.00;97956.53;5018502;28;20547;-77
2022/05/16 02:49:48;;;;;;;15.93;4.00;;;14.80;99.90;;;15.58;100.00;97954.94;5019519;28;20466;-77
2022/05/16 02:52:18;;;;;;;5.63;3.50;;;14.70;99.90;;;15.58;100.00;97950.44;5017627;28;20549;-76
2022/05/16 02:54:48;;;;;;;5.73;3.70;;;14.70;99.90;;;15.50;100.00;97958.66;5017299;28;20817;-77
2022/05/16 02:57:18;;;;;;;13.50;3.93;;;14.70;99.90;;;15.47;100.00;97951.19;5019382;28;20525;-77
2022/05/16 02:59:48;;;;;;;4.73;3.40;;;14.70;99.90;;;15.48;100.00;97942.25;5019997;28;20566;-77
2022/05/16 03:02:18;;;;;;;14.23;3.87;;;14.60;99.90;;;15.48;100.00;97941.44;5017863;28;20498;-77
2022/05/16 03:04:48;;;;;;;5.43;3.10;;;14.60;99.90;;;15.45;100.00;97940.03;5019388;28;20561;-76
2022/05/16 03:07:18;;;;;;;6.53;3.77;;;14.60;99.90;;;15.47;100.00;97930.09;5018821;28;20505;-83
2022/05/16 03:09:49;;;;;;;8.13;3.90;;;14.60;99.90;;;15.47;100.00;97935.38;5024724;28;20465;-76
2022/05/16 03:12:19;;;;;;;12.50;3.73;;;14.60;99.90;;;15.44;100.00;97938.44;5020763;28;20462;-76
2022/05/16 03:14:48;;;;;;;5.47;3.30;;;14.60;99.90;;;15.44;100.00;97927.91;5017452;28;21043;-76
2022/05/16 03:17:18;;;;;;;5.60;3.60;;;14.60;99.90;;;15.44;100.00;97932.38;5018952;28;20536;-76
2022/05/16 03:19:47;;;;;;;6.33;2.90;;;14.60;99.90;;;15.45;100.00;97929.50;5016892;28;20458;-76
2022/05/16 03:22:17;;;;;;;10.60;3.63;;;14.60;99.90;;;15.41;100.00;97920.41;5023208;28;20470;-90
2022/05/16 03:24:48;;;;;;;11.63;5.20;;;14.50;99.90;;;15.38;100.00;97933.22;5022314;28;20515;-77
2022/05/16 03:27:18;;;;;;;5.13;3.70;;;14.50;99.90;;;15.33;100.00;97936.53;5019018;28;20515;-76
2022/05/16 03:29:49;;;;;;;7.72;4.00;;;14.60;99.90;;;15.31;100.00;97948.28;5020346;28;20809;-76
2022/05/16 03:32:20;;;;;;;6.70;3.77;;;14.50;99.90;;;15.34;100.00;97951.31;5019117;28;20666;-77
2022/05/16 03:34:54;;;;;;;4.40;3.43;;;14.50;99.90;;;15.36;100.00;97962.44;5020457;28;20459;-76
2022/05/16 03:37:24;;;;;;;4.27;3.30;;;14.50;99.90;;;15.36;100.00;97959.81;5023399;28;20814;-76
2022/05/16 03:42:42;;;;;;;13.40;3.93;;;14.50;99.90;;;15.37;100.00;97957.97;5020252;28;20501;-74
2022/05/16 03:45:13;;;;;;;6.60;4.13;;;14.50;99.90;;;15.32;100.00;97950.72;5016649;28;20897;-78
2022/05/16 03:47:44;;;;;;;7.47;3.27;;;14.50;99.90;;;15.32;100.00;97950.72;5018259;28;21053;-76
2022/05/16 03:50:15;;;;;;;6.80;3.40;;;14.50;99.90;;;15.32;100.00;97940.19;5020587;28;20470;-77
2022/05/16 03:52:44;;;;;;;7.30;3.60;;;14.50;99.90;;;15.33;100.00;97941.81;5022925;28;20458;-76
2022/05/16 03:55:17;;;;;;;4.40;3.23;;;14.50;99.90;;;15.35;100.00;97939.75;5019979;28;20957;-76
2022/05/16 03:57:47;;;;;;;6.03;3.30;;;14.50;99.90;;;15.33;100.00;97952.34;5019484;28;20450;-76
2022/05/16 04:00:20;;;;;;;5.40;3.57;;;14.50;99.90;;;15.33;100.00;97957.63;5019903;28;20481;-76
2022/05/16 04:02:49;;;;;;;9.67;3.87;;;14.40;99.90;;;15.37;100.00;97948.25;5020285;28;20439;-76
2022/05/16 04:05:24;;;;;;;4.80;3.50;;;14.40;99.90;;;15.41;100.00;97945.97;5020656;28;20450;-77
2022/05/16 04:07:53;;;;;;;4.90;3.50;;;14.40;99.90;;;15.39;100.00;97951.47;5020458;28;20481;-76
2022/05/16 04:10:25;;;;;;;9.03;4.27;;;14.40;99.90;;;15.38;100.00;97959.56;5018961;28;21173;-76
2022/05/16 04:12:55;;;;;;;5.20;4.00;;;14.50;99.90;;;15.37;100.00;97964.06;5021854;28;20524;-77
2022/05/16 04:15:25;;;;;;;4.60;3.57;;;14.60;99.90;;;15.41;100.00;97965.22;5020208;28;20478;-76
2022/05/16 04:17:55;;;;;;;8.20;4.23;;;14.50;99.90;;;15.45;100.00;97958.47;5017341;28;20837;-77
2022/05/16 04:20:24;;;;;;;6.30;4.13;;;14.50;99.90;;;15.44;100.00;97959.53;5020884;28;20470;-89
2022/05/16 04:22:54;;;;;;;8.77;4.17;;;14.50;99.90;;;15.42;100.00;97964.19;5017669;28;20480;-76
2022/05/16 04:25:27;;;;;;;7.27;3.40;;;14.50;99.90;;;15.42;100.00;97969.47;5017416;28;20458;-77
2022/05/16 04:27:57;;;;;;;12.20;3.80;;;14.60;99.90;;;15.43;100.00;97968.44;5017868;28;20495;-77
2022/05/16 04:30:26;;;;;;;5.50;3.80;;;14.60;99.90;;;15.42;100.00;97977.38;5018519;28;20463;-76
2022/05/16 04:32:57;;;;;;;7.53;3.50;;;14.60;99.90;;;15.45;100.00;97978.75;5019646;28;20558;-76
2022/05/16 04:35:28;;;;;;;7.73;3.80;;;14.60;99.90;;;15.47;100.00;97982.81;5019134;28;20508;-77
2022/05/16 04:37:58;;;;;;;6.90;3.80;;;14.60;99.90;;;15.48;100.00;97980.97;5019377;28;20462;-84
2022/05/16 04:40:29;;;;;;;8.93;5.27;;;14.60;99.90;;;15.44;100.00;97985.88;5018435;28;20474;-76
2022/05/16 04:42:58;;;;;;;7.00;3.50;;;14.60;99.90;;;15.47;100.00;97984.63;5018827;28;20961;-76
2022/05/16 04:45:32;;;;;;;9.53;3.90;;;14.60;99.90;;;15.49;100.00;97980.78;5018368;28;20572;-76
2022/05/16 04:48:06;;;;;;;7.97;4.37;;;14.60;99.90;;;15.51;100.00;97980.56;5018523;28;20487;-76
2022/05/16 04:50:36;;;;;;;6.17;4.37;;;14.60;99.90;;;15.48;100.00;97981.78;5019097;28;20458;-76
2022/05/16 04:53:06;;;;;;;7.37;3.83;;;14.60;99.90;;;15.46;100.00;97988.28;5022706;28;20908;-76
2022/05/16 04:55:38;;;;;;;5.87;4.17;;;14.60;99.90;;;15.44;100.00;97988.50;5022349;28;20447;-76
2022/05/16 04:58:09;;;;;;;5.23;3.60;;;14.60;99.90;;;15.40;100.00;97989.97;5025356;28;21048;-76
2022/05/16 05:00:39;;;;;;;8.43;4.60;;;14.50;99.90;;;15.40;100.00;97989.97;5026663;28;20489;-76
2022/05/16 05:03:09;;;;;;;5.47;3.80;;;14.50;99.90;;;15.40;100.00;97992.59;5025601;28;20449;-76
2022/05/16 05:05:40;;;;;;;7.43;3.60;;;14.50;99.90;;;15.38;100.00;97997.28;5025607;28;20454;-76
2022/05/16 05:08:09;;;;;;;8.43;3.73;;;14.50;99.90;;;15.40;100.00;97997.06;5025136;28;20547;-76
2022/05/16 05:16:22;;;;;;;7.80;4.03;;;14.60;99.90;;;15.52;100.00;97998.78;5025475;28;20588;-77
2022/05/16 05:18:52;;;;;;;6.80;4.20;;;14.60;99.90;;;15.56;100.00;97999.94;5025866;28;20437;-76
2022/05/16 05:21:23;;;;;;;6.60;3.97;;;14.60;99.90;;;15.59;100.00;97998.69;5026071;28;21007;-76
2022/05/16 05:23:55;;;;;;;9.30;4.53;;;14.70;99.90;;;15.60;100.00;98009.03;5023800;28;20449;-76
2022/05/16 05:26:26;;;;;;;6.77;3.73;;;14.70;99.90;;;15.64;100.00;98011.22;5025019;28;20449;-77
2022/05/16 05:28:56;;;;;;;8.30;4.80;;;14.60;99.90;;;15.68;100.00;98012.41;5024845;28;20493;-76
2022/05/16 05:31:27;;;;;;;6.03;3.80;;;14.70;99.90;;;15.73;100.00;98020.44;5024502;28;20438;-76
2022/05/16 05:33:57;;;;;;;5.67;3.87;;;14.80;99.90;;;15.78;100.00;98012.69;5020469;28;20463;-76
2022/05/16 05:36:26;;;;;;;8.63;4.37;;;14.80;99.90;;;15.84;100.00;98017.88;5021418;28;20565;-76
2022/05/16 05:38:58;;;;;;;11.40;4.37;;;14.90;99.90;;;15.90;100.00;98016.19;5017855;28;20919;-77
2022/05/16 05:41:29;;;;;;;5.50;4.60;;;15.00;99.90;;;15.96;100.00;98026.69;5022662;28;20442;-76
2022/05/16 05:43:59;;;;;;;6.37;3.90;;;15.00;99.90;;;16.01;100.00;98020.72;5025701;28;20870;-76
2022/05/16 05:46:35;;;;;;;11.03;4.70;;;15.10;99.90;;;16.04;100.00;98017.63;5025956;28;20955;-77
2022/05/16 05:49:05;;;;;;;6.10;4.40;;;15.10;99.90;;;16.10;100.00;98019.41;5024920;28;20497;-77
2022/05/16 05:51:36;;;;;;;5.03;4.10;;;15.20;99.90;;;16.14;100.00;98020.56;5025111;28;20590;-77
2022/05/16 05:54:07;;;;;;;5.17;4.67;;;15.20;99.90;;;16.15;100.00;98030.09;5026309;28;20929;-77
2022/05/16 05:56:39;;;;;;;5.93;4.63;;;15.20;99.90;;;16.12;100.00;98030.53;5025790;28;20442;-77
2022/05/16 05:59:08;;;;;;;10.70;4.57;;;15.30;99.90;;;16.13;100.00;98033.97;5026414;28;20891;-77
2022/05/16 06:01:37;;;;;;;9.10;4.20;;;15.20;99.90;;;16.16;100.00;98033.53;5026060;28;20450;-77
2022/05/16 06:04:08;;;;;;;8.00;4.50;;;15.20;99.90;;;16.17;100.00;98033.31;5024069;28;20476;-77
2022/05/16 06:06:40;;;;;;;7.10;4.80;;;15.20;99.90;;;16.19;100.00;98030.44;5026355;28;20461;-77
2022/05/16 06:09:10;;;;;;;11.10;4.40;;;15.20;99.90;;;16.19;100.00;98036.53;5025565;28;20498;-77
2022/05/16 06:11:41;;;;;;;9.90;4.60;;;15.20;99.90;;;16.20;100.00;98027.59;5024535;28;20446;-77
2022/05/16 06:14:12;;;;;;;6.90;4.80;;;15.30;99.90;;;16.23;100.00;98031.63;5024798;28;20515;-77
2022/05/16 06:16:42;;;;;;;8.70;4.80;;;15.30;99.90;;;16.28;100.00;98035.19;5026645;28;20450;-77
2022/05/16 06:19:12;;;;;;;10.07;4.30;;;15.40;99.90;;;16.32;100.00;98025.78;5024448;28;20442;-77
2022/05/16 06:21:44;;;;;;;8.33;4.13;;;15.40;99.90;;;16.36;100.00;98029.59;5021172;28;20453;-76
2022/05/16 06:26:59;;;;;;;6.37;4.60;;;15.50;99.90;;;16.41;100.00;98039.50;5022756;28;20944;-76
2022/05/16 06:29:29;;;;;;;14.30;4.30;;;15.60;99.90;;;16.42;100.00;98036.63;5022727;28;20497;-76
2022/05/16 06:32:00;;;;;;;7.20;4.13;;;15.60;99.90;;;16.46;100.00;98040.41;5026755;28;20442;-77
2022/05/16 06:34:30;;;;;;;12.63;5.57;;;15.50;99.90;;;16.49;100.00;98041.81;5029328;28;20453;-77
2022/05/16 06:37:01;;;;;;;12.27;4.23;;;15.60;99.90;;;16.54;100.00;98039.31;5028927;28;20461;-77
2022/05/16 06:39:30;;;;;;;7.63;4.50;;;15.60;99.90;;;16.58;100.00;98038.69;5028901;28;20450;-77
2022/05/16 06:42:01;;;;;;;8.03;4.60;;;15.60;99.90;;;16.64;100.00;98046.72;5025088;28;20485;-76
2022/05/16 06:44:32;;;;;;;7.53;4.60;;;15.70;99.90;;;16.68;100.00;98040.75;5025921;28;20486;-77
2022/05/16 06:47:03;;;;;;;6.97;4.87;;;15.80;99.90;;;16.74;100.00;98039.84;5028010;28;20442;-76
2022/05/16 06:49:32;;;;;;;11.60;4.90;;;15.80;99.90;;;16.80;100.00;98044.22;5030539;28;20551;-77
2022/05/16 06:52:01;;;;;;;7.20;4.43;;;15.90;99.90;;;16.86;100.00;98040.69;5030746;28;20443;-77
2022/05/16 06:54:37;;;;;;;6.90;4.60;;;15.90;99.90;;;16.93;100.00;98037.94;5030877;28;20442;-77
2022/05/16 06:57:08;;;;;;;6.30;4.63;;;16.10;99.90;;;16.99;100.00;98037.03;5029959;28;20473;-76
2022/05/16 06:59:39;;;;;;;9.13;4.70;;;16.10;99.90;;;17.07;100.00;98044.63;5030406;28;20458;-76
2022/05/16 07:02:10;;;;;;;9.37;5.10;;;16.20;99.90;;;17.13;100.00;98042.91;5028410;28;20505;-77
2022/05/16 07:04:40;;;;;;;9.47;5.00;;;16.30;99.90;;;17.20;100.00;98044.41;5028208;28;20437;-76
2022/05/16 07:07:10;;;;;;;21.37;5.20;;;16.30;99.90;;;17.28;100.00;98057.28;5024410;28;20461;-76
2022/05/16 07:09:40;;;;;;;8.43;4.10;;;16.40;99.90;;;17.34;100.00;98055.56;5021140;28;20486;-77
2022/05/16 07:12:12;;;;;;;7.10;4.67;;;16.50;99.90;;;17.42;100.00;98063.94;5022493;28;20449;-77
2022/05/16 07:14:42;;;;;;;10.17;4.47;;;16.60;99.90;;;17.48;100.00;98056.94;5022753;28;20492;-76
2022/05/16 07:17:12;;;;;;;7.13;4.13;;;16.60;99.90;;;17.54;100.00;98056.81;5024590;28;20454;-77
2022/05/16 07:19:43;;;;;;;9.07;4.17;;;16.70;99.90;;;17.59;100.00;98049.03;5027101;28;20450;-77
2022/05/16 07:22:17;;;;;;;7.50;4.60;;;16.80;99.90;;;17.68;100.00;98052.13;5027235;28;20902;-77
2022/05/16 07:24:47;;;;;;;6.90;4.63;;;16.90;99.90;;;17.75;100.00;98059.94;5029376;28;20504;-77
2022/05/16 07:30:08;;;;;;;6.60;4.17;;;17.10;99.90;;;17.90;100.00;98052.31;5028377;28;20547;-76
2022/05/16 07:32:43;;;;;;;15.43;5.40;;;17.10;99.90;;;17.97;100.00;98051.16;5028397;28;20479;-76
2022/05/16 07:35:18;;;;;;;12.87;4.00;;;17.30;99.90;;;18.07;100.00;98056.66;5029022;28;20532;-76
2022/05/16 07:37:49;;;;;;;7.53;4.33;;;17.30;99.90;;;18.15;100.00;98046.75;5027884;28;20495;-77
2022/05/16 07:40:20;;;;;;;11.20;4.90;;;17.40;99.90;;;18.23;100.00;98049.81;5029105;28;20484;-76
2022/05/16 07:42:51;;;;;;;10.60;4.37;;;17.50;99.90;;;18.31;100.00;98038.84;5028590;28;20453;-76
2022/05/16 07:45:22;;;;;;;9.20;4.70;;;17.60;99.90;;;18.39;100.00;98053.56;5027782;28;20446;-76
2022/05/16 07:47:52;;;;;;;16.67;4.30;;;17.70;99.90;;;18.47;100.00;98050.50;5026903;28;20481;-77
2022/05/16 07:50:25;;;;;;;5.93;4.07;;;17.80;99.90;;;18.54;100.00;98059.94;5025311;28;20490;-76
2022/05/16 07:52:57;;;;;;;10.10;5.00;;;17.90;99.90;;;18.68;100.00;98063.09;5022056;28;20450;-76
2022/05/16 07:55:28;;;;;;;10.20;4.80;;;18.00;99.90;;;18.76;100.00;98065.38;5022656;28;20491;-76
2022/05/16 07:57:59;;;;;;;6.90;4.27;;;18.10;99.90;;;18.88;100.00;98063.47;5020886;28;20505;-76
2022/05/16 08:00:29;;;;;;;10.03;3.93;;;18.20;99.90;;;18.99;100.00;98064.44;5021818;28;20451;-76
2022/05/16 08:02:59;;;;;;;8.53;4.00;;;18.40;99.90;;;19.08;100.00;98063.81;5020880;28;20443;-76
2022/05/16 08:05:30;;;;;;;6.30;3.80;;;18.40;99.90;;;19.16;100.00;98070.53;5025020;28;20453;-76
2022/05/16 08:10:49;;;;;;;9.60;4.77;;;18.60;99.90;;;19.32;100.00;98068.94;5028425;28;20438;-76
2022/05/16 08:13:20;;;;;;;6.13;3.73;;;18.70;99.90;;;19.39;100.00;98075.69;5025965;28;20447;-77
2022/05/16 08:15:50;;;;;;;9.57;3.90;;;18.80;99.90;;;19.44;100.00;98067.84;5026527;28;20470;-76
2022/05/16 08:18:20;;;;;;;6.57;4.00;;;18.90;99.90;;;19.52;100.00;98070.09;5026475;28;20511;-76
2022/05/16 08:20:51;;;;;;;7.90;3.70;;;18.90;99.90;;;19.61;100.00;98077.63;5026828;28;20446;-77
2022/05/16 08:23:25;;;;;;;6.00;4.10;;;19.00;99.90;;;19.68;100.00;98072.97;5027675;28;20453;-76
2022/05/16 08:25:55;;;;;;;6.93;3.80;;;19.10;99.90;;;19.74;100.00;98072.78;5027428;28;20472;-76
2022/05/16 08:28:27;;;;;;;5.37;3.80;;;19.10;99.90;;;19.82;100.00;98080.31;5022610;28;20470;-76
2022/05/16 08:30:57;;;;;;;7.70;3.70;;;19.20;99.90;;;19.93;100.00;98089.22;5022031;28;20512;-76
2022/05/16 08:33:27;;;;;;;9.60;3.93;;;19.30;99.90;;;19.99;100.00;98091.69;5020279;28;20453;-76
2022/05/16 08:41:40;;;;;;;6.70;4.10;;;19.50;99.90;;;20.27;100.00;98089.91;5019790;28;20504;-77
2022/05/16 08:44:21;;;;;;;6.97;3.67;;;19.50;99.90;;;20.33;100.00;98095.06;5020902;28;20438;-77
2022/05/16 08:47:12;;;;;;;20.83;4.20;;;19.70;99.90;;;20.40;100.00;98092.22;5020442;28;20536;-77
2022/05/16 08:49:50;;;;;;;13.67;4.17;;;19.80;99.90;;;20.46;100.00;98102.66;5023743;28;20572;-76
2022/05/16 08:52:40;;;;;;;10.97;4.50;;;19.90;99.90;;;20.50;100.00;98109.09;5020927;28;20464;-77
2022/05/16 08:55:26;;;;;;;9.50;3.97;;;19.90;99.90;;;20.58;100.00;98108.63;5021891;28;20925;-76
2022/05/16 08:58:05;;;;;;;8.43;3.80;;;20.00;99.90;;;20.62;100.00;98111.59;5021651;28;20465;-77
2022/05/16 09:00:47;;;;;;;12.10;3.90;;;19.90;99.90;;;20.69;100.00;98106.88;5020817;28;21071;-77
2022/05/16 09:03:26;;;;;;;7.23;3.40;;;20.10;99.90;;;20.76;100.00;98122.63;5022069;28;20803;-77
2022/05/16 09:06:02;;;;;;;4.70;3.50;;;20.10;99.90;;;20.78;100.00;98123.19;5020599;28;20944;-77
2022/05/16 09:08:43;;;;;;;10.83;4.20;;;20.20;99.90;;;20.84;100.00;98119.53;5019195;28;20548;-76
2022/05/16 09:11:24;;;;;;;7.63;3.70;;;20.20;99.90;;;20.89;100.00;98119.59;5020596;28;20891;-76
2022/05/16 09:14:04;;;;;;;9.60;3.80;;;20.20;99.90;;;20.97;100.00;98124.44;5019952;28;20462;-77
2022/05/16 09:16:49;;;;;;;12.27;3.47;;;20.40;99.90;;;21.05;100.00;98126.66;5020660;28;20454;-76
2022/05/16 09:19:58;;;;;;;7.40;3.70;;;20.50;99.90;;;21.12;100.00;98131.78;5021518;28;20439;-77
2022/05/16 09:22:38;;;;;;;7.67;3.50;;;20.50;99.90;;;21.18;100.00;98134.25;5021336;28;20531;-77
2022/05/16 09:25:18;;;;;;;9.00;3.40;;;20.60;99.90;;;21.21;100.00;98131.06;5020622;28;20517;-76
2022/05/16 09:30:46;;;;;;;6.90;3.93;;;20.70;99.90;;;21.32;100.00;98142.59;5024816;28;20481;-76
2022/05/16 09:33:21;;;;;;;11.60;4.10;;;20.80;99.90;;;21.34;100.00;98151.16;5025529;28;20809;-76
2022/05/16 09:36:01;;;;;;;12.13;3.80;;;20.80;99.90;;;21.38;100.00;98155.69;5024526;28;20477;-77
2022/05/16 09:38:32;;;;;;;7.40;3.87;;;20.70;99.90;;;21.43;100.00;98162.94;5020404;28;20461;-76
2022/05/16 09:41:18;;;;;;;8.43;4.50;;;20.80;99.90;;;21.47;100.00;98167.50;5020840;28;20487;-77
2022/05/16 09:43:58;;;;;;;7.93;3.07;;;20.90;99.90;;;21.47;100.00;98172.00;5021546;28;20443;-77
2022/05/16 09:46:35;;;;;;;5.97;3.40;;;20.80;99.90;;;21.51;100.00;98160.63;5020743;28;20447;-77
2022/05/16 09:49:13;;;;;;;18.00;3.33;;;20.90;99.90;;;21.53;100.00;98171.78;5023726;28;21721;-77
2022/05/16 09:51:48;;;;;;;9.23;3.83;;;20.80;99.90;;;21.59;100.00;98164.63;5025904;28;20832;-77
2022/05/16 09:54:32;;;;;;;6.83;3.60;;;20.90;99.90;;;21.65;100.00;98162.84;5026187;28;20445;-77
2022/05/16 09:57:19;;;;;;;7.93;3.90;;;21.00;99.90;;;21.72;100.00;98166.91;5021234;28;20466;-77
2022/05/16 09:59:53;;;;;;;8.33;3.23;;;21.10;99.90;;;21.79;100.00;98169.34;5018501;28;20454;-77
2022/05/16 10:02:33;;;;;;;16.90;3.40;;;21.10;99.90;;;21.89;100.00;98164.88;5024772;28;20438;-76
2022/05/16 10:05:24;;;;;;;8.20;3.67;;;21.30;99.90;;;21.96;100.00;98175.34;5024699;28;20443;-76
2022/05/16 10:08:05;;;;;;;12.63;3.80;;;21.30;99.90;;;22.05;100.00;98182.59;5023472;28;20450;-76
2022/05/16 10:10:40;;;;;;;12.07;3.23;;;21.40;99.90;;;22.13;100.00;98183.97;5023596;28;20574;-77
2022/05/16 10:13:11;;;;;;;5.90;3.03;;;21.40;99.90;;;22.22;100.00;98190.41;5024945;28;20518;-77
2022/05/16 10:15:40;;;;;;;8.17;3.27;;;21.60;99.90;;;22.26;100.00;98180.84;5023504;28;20505;-76
2022/05/16 10:18:17;;;;;;;9.00;3.43;;;21.70;99.90;;;22.25;100.00;98189.09;5023544;28;20578;-77
2022/05/16 10:20:58;;;;;;;4.20;2.77;;;21.70;99.90;;;22.23;100.00;98194.69;5022958;28;21118;-77
2022/05/16 10:23:33;;;;;;;6.00;2.70;;;21.70;99.90;;;22.26;100.00;98202.16;5025610;28;20464;-77
2022/05/16 10:26:11;;;;;;;4.90;2.43;;;21.70;99.90;;;22.29;100.00;98192.84;5026798;28;20443;-76
2022/05/16 10:28:46;;;;;;;9.23;2.60;;;21.70;99.90;;;22.35;100.00;98203.25;5024189;28;20446;-77
2022/05/16 10:34:14;;;;;;;9.70;2.70;;;21.80;99.90;;;22.42;99.03;98203.06;5023411;28;20940;-77
2022/05/16 10:36:49;;;;;;;7.90;3.20;;;21.80;99.90;;;22.46;100.00;98202.25;5024601;28;20445;-76
2022/05/16 10:39:25;;;;;;;8.60;3.00;;;21.90;99.90;;;22.42;98.04;98206.50;5029390;28;20452;-77
2022/05/16 10:42:04;;;;;;;6.17;3.00;;;21.80;99.90;;;22.40;98.70;98203.28;5022654;28;20888;-77
2022/05/16 10:44:49;;;;;;;11.73;3.20;;;21.70;99.90;;;22.46;99.26;98207.59;5022772;28;20492;-77
2022/05/16 10:47:29;;;;;;;7.30;2.87;;;21.80;99.90;;;22.53;98.72;98220.69;5022098;28;20828;-77
2022/05/16 10:50:14;;;;;;;7.40;2.63;;;21.80;99.90;;;22.53;96.54;98213.47;5023491;28;20485;-76
2022/05/16 10:52:54;;;;;;;10.70;2.90;;;21.80;99.90;;;22.56;96.72;98212.19;5024131;28;20445;-77
2022/05/16 10:55:26;;;;;;;8.53;2.83;;;21.90;99.90;;;22.63;97.34;98211.94;5028150;28;20473;-77
2022/05/16 10:58:31;;;;;;;6.83;2.70;;;21.90;99.90;;;22.62;95.88;98210.34;5028814;28;20478;-77
2022/05/16 11:01:11;;;;;;;6.57;2.80;;;21.90;99.90;;;22.62;95.81;98216.47;5027620;28;20492;-76
2022/05/16 11:04:10;;;;;;;8.37;2.50;;;21.90;99.90;;;22.63;93.78;98217.28;5023885;28;20508;-77
2022/05/16 11:07:05;;;;;;;5.07;2.10;;;21.90;99.90;;;22.67;88.40;98221.03;5022725;28;20853;-77
2022/05/16 11:09:52;;;;;;;11.97;2.50;;;22.10;99.90;;;22.70;88.49;98228.53;5023835;28;20442;-77